메인 페이지
METAR-TAF:

METAR-TAF

공항 :

Gulfport, 미시시피, 미국

위도: 30-24-43N, 경도: 089-04-51W, 고도: 8m

현재 날씨관측

예보는 1 시간 9분 전, 12:53시(UTC)에 발표되었습니다.
4kt
온도 24°C
습도 83%
기압 1016 hPa
시정: 16.1km
맑음

METAR: KGPT 291253Z 35004KT 10SM CLR 24/21 A3001 RMK AO2 SLP162 T02390211

시각: 09:02 (14:02 UTC)

예보

예보는 2 시간 42분 전, 11:20시(UTC)에 발표되었습니다.
예보 대상 시간: 29일 12시부터 30일 12시까지 (UTC)
kt
시정: 10km
고도 2100ft 상공 구름 조금
고도 3500ft 상공 구름 보통, 적란운.
시계 내 뇌우
29일 1700시부터 (UTC)
6kt
시정: 10km
고도 4500ft 상공 구름 많음
소나기
일시적
29일 17시부터 29일 21시까지 (UTC)
시정: 6.4km
고도 2500ft 상공 흐림, 적란운.
뇌우, 비, 박무
29일 2300시부터 (UTC)
남남서6kt
시정: 10km
고도 10000ft 상공 구름 보통, 적란운.
시계 내 뇌우
30일 0000시부터 (UTC)
남서5kt
시정: 10km
고도 25000ft 상공 구름 보통

TAF: KGPT 291120Z 2912/3012 00000KT P6SM VCTS FEW021 SCT035CB FM291700 18006KT P6SM SHRA BKN045 TEMPO 2917/2921 4SM TSRA BR OVC025CB FM292300 21006KT P6SM VCTS SCT100CB FM300000 22005KT P6SM SCT250

4,000개 이상의 공항 관측 자료 및 예보 (METAR 및 TAF 보고).

지도상에서 검색 가능한 기상관측소가 노란 점과 빨간 점으로 표시되어 있습니다.

기상관측소 명을 보려면 표시 위로 마우스를 이동하세요.

날씨 관측과 예보를 보려면 클릭하세요.

지도 변경 : 확대하려면 엑스 표시가 있는 녹색 버튼, 축소하려면 빼기 표시가 있는 녹색 버튼, 다음 페이지의 지도를 보려면 녹색 화살표를 클릭하세요.


METAR-TAF: